Time,TemperatureF,DewpointF,PressureIn,WindDirection,WindDirectionDegrees,WindSpeedMPH,WindSpeedGustMPH,Humidity,HourlyPrecipIn,Conditions,Clouds,dailyrainin,SolarRadiationWatts/m^2,SoftwareType,DateUTC
2013-12-05 00:12:00,-17.0,-24.0,-100.00,South,177,0.0,2.0,69,0.00,,,0.00,0.000000,,2013-12-05 07:12:00,
2013-12-05 00:21:00,-17.0,-24.0,-100.00,South,177,0.0,2.0,69,0.00,,,0.00,0.000000,,2013-12-05 07:21:00,
2013-12-05 00:32:00,-17.0,-24.0,-100.00,South,177,0.0,2.0,69,0.00,,,0.00,0.000000,,2013-12-05 07:32:00,
2013-12-05 01:11:00,-20.0,-27.0,-100.00,South,177,0.0,2.0,67,0.00,,,0.00,0.000000,,2013-12-05 08:11:00,
2013-12-05 01:21:00,-20.0,-27.0,-100.00,South,177,0.0,2.0,67,0.00,,,0.00,0.000000,,2013-12-05 08:21:00,
2013-12-05 01:32:00,-20.0,-27.0,-100.00,South,177,0.0,2.0,67,0.00,,,0.00,0.000000,,2013-12-05 08:32:00,
2013-12-05 02:11:00,-23.0,-30.0,-100.00,South,175,0.0,2.0,67,0.00,,,0.00,0.000000,,2013-12-05 09:11:00,
2013-12-05 02:22:00,-23.0,-30.0,-100.00,South,175,0.0,2.0,67,0.00,,,0.00,0.000000,,2013-12-05 09:22:00,
2013-12-05 02:33:00,-23.0,-30.0,-100.00,South,175,0.0,2.0,67,0.00,,,0.00,0.000000,,2013-12-05 09:33:00,
2013-12-05 03:12:00,-25.0,-33.0,-100.00,SSE,159,0.0,1.0,65,0.00,,,0.00,0.000000,,2013-12-05 10:12:00,
2013-12-05 03:23:00,-25.0,-33.0,-100.00,SSE,159,0.0,1.0,65,0.00,,,0.00,0.000000,,2013-12-05 10:23:00,
2013-12-05 03:33:00,-25.0,-33.0,-100.00,SSE,159,0.0,1.0,65,0.00,,,0.00,0.000000,,2013-12-05 10:33:00,
2013-12-05 04:12:00,-25.0,-33.0,-100.00,South,188,0.0,2.0,66,0.00,,,0.00,0.000000,,2013-12-05 11:12:00,
2013-12-05 04:22:00,-25.0,-33.0,-100.00,South,188,0.0,2.0,66,0.00,,,0.00,0.000000,,2013-12-05 11:22:00,
2013-12-05 04:33:00,-25.0,-33.0,-100.00,South,188,0.0,2.0,66,0.00,,,0.00,0.000000,,2013-12-05 11:33:00,
2013-12-05 05:12:00,-23.0,-31.0,-100.00,SE,135,0.0,2.0,66,0.00,,,0.00,0.000000,,2013-12-05 12:12:00,
2013-12-05 05:21:00,-23.0,-31.0,-100.00,SE,135,0.0,2.0,66,0.00,,,0.00,0.000000,,2013-12-05 12:21:00,
2013-12-05 05:32:00,-23.0,-31.0,-100.00,SE,135,0.0,2.0,66,0.00,,,0.00,0.000000,,2013-12-05 12:32:00,
2013-12-05 06:11:00,-23.0,-31.0,-100.00,SSE,167,0.0,0.0,66,0.00,,,0.00,0.000000,,2013-12-05 13:11:00,
2013-12-05 06:21:00,-23.0,-31.0,-100.00,SSE,167,0.0,0.0,66,0.00,,,0.00,0.000000,,2013-12-05 13:21:00,
2013-12-05 06:32:00,-23.0,-31.0,-100.00,SSE,167,0.0,0.0,66,0.00,,,0.00,0.000000,,2013-12-05 13:32:00,
2013-12-05 07:11:00,-23.0,-31.0,-100.00,SE,133,0.0,0.0,66,0.00,,,0.00,0.000000,,2013-12-05 14:11:00,
2013-12-05 07:22:00,-23.0,-31.0,-100.00,SE,133,0.0,0.0,66,0.00,,,0.00,0.000000,,2013-12-05 14:22:00,
2013-12-05 07:32:00,-23.0,-31.0,-100.00,SE,133,0.0,0.0,66,0.00,,,0.00,0.000000,,2013-12-05 14:32:00,
2013-12-05 08:11:00,-26.0,-34.0,-100.00,SSE,165,0.0,0.0,64,0.00,,,0.00,0.000000,,2013-12-05 15:11:00,
2013-12-05 11:12:00,-13.0,-20.0,-100.00,West,266,1.0,3.0,69,-99.99,,,0.00,11.000000,,2013-12-05 18:12:00,
2013-12-05 11:22:00,-13.0,-20.0,-100.00,West,266,1.0,3.0,69,-99.99,,,0.00,11.000000,,2013-12-05 18:22:00,
2013-12-05 11:33:00,-13.0,-20.0,-100.00,West,266,1.0,3.0,69,-99.99,,,0.00,11.000000,,2013-12-05 18:33:00,
2013-12-05 12:12:00,-8.0,-17.0,-100.00,SW,230,2.0,3.0,64,-99.99,,,0.00,32.000000,,2013-12-05 19:12:00,
2013-12-05 12:21:00,-8.0,-17.0,-100.00,SW,230,2.0,3.0,64,-99.99,,,0.00,32.000000,,2013-12-05 19:21:00,
2013-12-05 12:32:00,-8.0,-17.0,-100.00,SW,230,2.0,3.0,64,-99.99,,,0.00,32.000000,,2013-12-05 19:32:00,
2013-12-05 13:11:00,-2.0,-12.0,-100.00,NNE,23,1.0,3.0,60,-99.99,,,0.00,18.000000,,2013-12-05 20:11:00,
2013-12-05 13:22:00,-2.0,-12.0,-100.00,NNE,23,1.0,3.0,60,-99.99,,,0.00,18.000000,,2013-12-05 20:22:00,
2013-12-05 13:32:00,-2.0,-12.0,-100.00,NNE,23,1.0,3.0,60,-99.99,,,0.00,18.000000,,2013-12-05 20:32:00,
2013-12-05 14:12:00,2.0,-8.0,-100.00,SW,229,2.0,3.0,61,0.00,,,0.00,25.000000,,2013-12-05 21:12:00,
2013-12-05 14:21:00,2.0,-8.0,-100.00,SW,229,2.0,3.0,61,0.00,,,0.00,25.000000,,2013-12-05 21:21:00,
2013-12-05 14:33:00,2.0,-8.0,-100.00,SW,229,2.0,3.0,61,0.00,,,0.00,25.000000,,2013-12-05 21:33:00,
2013-12-05 15:13:00,0.0,-10.0,-100.00,WSW,256,1.0,3.0,63,0.00,,,0.00,19.000000,,2013-12-05 22:13:00,
2013-12-05 15:23:00,0.0,-10.0,-100.00,WSW,256,1.0,3.0,63,0.00,,,0.00,19.000000,,2013-12-05 22:23:00,
2013-12-05 15:33:00,0.0,-10.0,-100.00,WSW,256,1.0,3.0,63,0.00,,,0.00,19.000000,,2013-12-05 22:33:00,
2013-12-05 16:12:00,-1.0,-8.0,-100.00,SW,217,0.0,4.0,70,0.00,,,0.00,4.000000,,2013-12-05 23:12:00,
2013-12-05 16:22:00,-1.0,-8.0,-100.00,SW,217,0.0,4.0,70,0.00,,,0.00,4.000000,,2013-12-05 23:22:00,
2013-12-05 16:33:00,-1.0,-8.0,-100.00,SW,217,0.0,4.0,70,0.00,,,0.00,4.000000,,2013-12-05 23:33:00,
2013-12-05 17:11:00,-5.0,-11.0,-100.00,SSE,163,0.0,0.0,73,0.00,,,0.00,2.000000,,2013-12-06 00:11:00,
2013-12-05 17:21:00,-5.0,-11.0,-100.00,SSE,163,0.0,0.0,73,0.00,,,0.00,2.000000,,2013-12-06 00:21:00,
2013-12-05 17:32:00,-5.0,-11.0,-100.00,SSE,163,0.0,0.0,73,0.00,,,0.00,2.000000,,2013-12-06 00:32:00,
2013-12-05 18:11:00,-11.0,-17.0,-100.00,SW,219,0.0,2.0,72,0.00,,,0.00,0.000000,,2013-12-06 01:11:00,
2013-12-05 18:21:00,-11.0,-17.0,-100.00,SW,219,0.0,2.0,72,0.00,,,0.00,0.000000,,2013-12-06 01:21:00,
2013-12-05 18:32:00,-11.0,-17.0,-100.00,SW,219,0.0,2.0,72,0.00,,,0.00,0.000000,,2013-12-06 01:32:00,
2013-12-05 19:11:00,-15.0,-22.0,-100.00,SW,225,0.0,0.0,71,0.00,,,0.00,0.000000,,2013-12-06 02:11:00,
2013-12-05 19:22:00,-15.0,-22.0,-100.00,SW,225,0.0,0.0,71,0.00,,,0.00,0.000000,,2013-12-06 02:22:00,
2013-12-05 19:32:00,-15.0,-22.0,-100.00,SW,225,0.0,0.0,71,0.00,,,0.00,0.000000,,2013-12-06 02:32:00,
2013-12-05 20:11:00,-18.0,-25.0,-100.00,SSW,197,0.0,0.0,69,0.00,,,0.00,0.000000,,2013-12-06 03:11:00,
2013-12-05 20:21:00,-18.0,-25.0,-100.00,SSW,197,0.0,0.0,69,0.00,,,0.00,0.000000,,2013-12-06 03:21:00,
2013-12-05 20:34:00,-18.0,-25.0,-100.00,SSW,197,0.0,0.0,69,0.00,,,0.00,0.000000,,2013-12-06 03:34:00,
2013-12-05 21:12:00,-21.0,-28.0,-100.00,SE,127,0.0,2.0,67,0.00,,,0.00,0.000000,,2013-12-06 04:12:00,
2013-12-05 21:23:00,-21.0,-28.0,-100.00,SE,127,0.0,2.0,67,0.00,,,0.00,0.000000,,2013-12-06 04:23:00,
2013-12-05 21:33:00,-21.0,-28.0,-100.00,SE,127,0.0,2.0,67,0.00,,,0.00,0.000000,,2013-12-06 04:33:00,
2013-12-05 22:13:00,-24.0,-32.0,-100.00,South,173,0.0,0.0,65,0.00,,,0.00,0.000000,,2013-12-06 05:13:00,